Time;durP1;ratioP1;P1;durP2;ratioP2;P2;SDS_P1;SDS_P2;PMS_P1;PMS_P2;Temp;Humidity;BMP_temperature;BMP_pressure;BME280_temperature;BME280_humidity;BME280_pressure;Samples;Min_cycle;Max_cycle;Signal;HPM_P1;HPM_P2
2023/08/29 00:00:28;;;;;;;;;;;27.00;67.10;;;;;;5074377;28;43259;-80
2023/08/29 00:02:53;;;;;;;;;;;27.00;67.40;;;;;;5075104;27;43654;-79
2023/08/29 00:05:19;;;;;;;;;;;27.00;67.00;;;;;;5070003;28;42936;-79
2023/08/29 00:07:45;;;;;;;;;;;27.00;67.60;;;;;;5073278;27;43483;-83
2023/08/29 00:10:11;;;;;;;;;;;27.00;67.00;;;;;;5068627;28;42968;-80
2023/08/29 00:12:36;;;;;;;;;;;27.00;67.80;;;;;;5068514;28;42853;-80
2023/08/29 00:15:05;;;;;;;;;;;26.90;67.80;;;;;;5068610;28;42950;-83
2023/08/29 00:17:30;;;;;;;;;;;26.90;67.40;;;;;;5067890;28;43034;-79
2023/08/29 00:19:56;;;;;;;;;;;27.00;67.80;;;;;;5068359;28;42980;-79
2023/08/29 00:22:22;;;;;;;;;;;26.90;67.40;;;;;;5067973;28;43031;-81
2023/08/29 00:24:48;;;;;;;;;;;27.00;66.90;;;;;;5067993;28;42948;-79
2023/08/29 00:27:14;;;;;;;;;;;26.90;67.10;;;;;;5068027;28;43202;-79
2023/08/29 00:29:39;;;;;;;;;;;26.80;67.10;;;;;;5068413;28;42932;-79
2023/08/29 00:32:05;;;;;;;;;;;27.10;67.20;;;;;;5067950;28;43558;-80
2023/08/29 00:34:30;;;;;;;;;;;26.80;66.70;;;;;;5068265;28;42912;-80
2023/08/29 00:36:56;;;;;;;;;;;26.90;67.20;;;;;;5067927;28;43453;-83
2023/08/29 00:39:23;;;;;;;;;;;26.90;67.40;;;;;;5067809;28;42905;-79
2023/08/29 00:41:49;;;;;;;;;;;26.80;67.40;;;;;;5068073;28;43374;-81
2023/08/29 00:44:16;;;;;;;;;;;27.00;67.60;;;;;;5067731;28;42889;-83
2023/08/29 00:46:42;;;;;;;;;;;26.90;67.50;;;;;;5067070;28;43072;-82
2023/08/29 00:49:08;;;;;;;;;;;26.90;67.80;;;;;;5067173;28;42940;-84
2023/08/29 00:51:33;;;;;;;;;;;26.80;67.90;;;;;;5067445;28;43115;-82
2023/08/29 00:54:00;;;;;;;;;;;27.10;68.10;;;;;;5067091;28;43104;-79
2023/08/29 00:56:26;;;;;;;;;;;26.70;67.20;;;;;;5066493;28;42961;-82
2023/08/29 00:58:52;;;;;;;;;;;27.00;68.30;;;;;;5067799;28;43000;-81
2023/08/29 01:01:18;;;;;;;;;;;27.10;68.20;;;;;;5066744;28;43658;-79
2023/08/29 01:03:44;;;;;;;;;;;26.80;67.90;;;;;;5065575;28;42943;-79
2023/08/29 01:06:11;;;;;;;;;;;26.50;67.70;;;;;;5067312;28;43494;-79
2023/08/29 01:08:36;;;;;;;;;;;26.90;68.00;;;;;;5067396;28;42828;-79
2023/08/29 01:11:16;;;;;;;;;;;27.00;68.40;;;;;;5065545;28;45266;-79
2023/08/29 01:13:54;;;;;;;;;;;26.90;65.50;;;;;;5066761;28;43020;-82
2023/08/29 01:16:24;;;;;;;;;;;26.90;65.50;;;;;;5067541;28;43759;-82
2023/08/29 01:18:51;;;;;;;;;;;26.80;67.90;;;;;;5066627;28;42969;-82
2023/08/29 01:21:19;;;;;;;;;;;27.00;67.90;;;;;;5067365;28;42935;-83
2023/08/29 01:23:50;;;;;;;;;;;26.90;65.20;;;;;;5067061;28;42873;-79
2023/08/29 01:26:16;;;;;;;;;;;26.80;67.30;;;;;;5065835;28;44801;-83
2023/08/29 01:28:42;;;;;;;;;;;26.70;67.10;;;;;;5066806;28;42893;-83
2023/08/29 01:31:09;;;;;;;;;;;26.90;67.20;;;;;;5066959;28;42976;-82
2023/08/29 01:33:35;;;;;;;;;;;26.90;67.70;;;;;;5067275;28;42931;-83
2023/08/29 01:36:00;;;;;;;;;;;26.80;67.30;;;;;;5067261;28;42917;-82
2023/08/29 01:38:26;;;;;;;;;;;26.90;66.90;;;;;;5067185;28;42948;-83
2023/08/29 01:40:51;;;;;;;;;;;26.90;67.00;;;;;;5066888;28;43913;-84
2023/08/29 01:43:17;;;;;;;;;;;26.80;67.40;;;;;;5066603;28;42849;-79
2023/08/29 01:45:42;;;;;;;;;;;26.80;67.40;;;;;;5067207;28;43598;-79
2023/08/29 01:48:10;;;;;;;;;;;26.80;67.40;;;;;;5067364;28;42774;-80
2023/08/29 01:50:36;;;;;;;;;;;26.80;67.70;;;;;;5067112;28;43824;-83
2023/08/29 01:53:02;;;;;;;;;;;26.80;67.60;;;;;;5066753;28;42807;-80
2023/08/29 01:55:28;;;;;;;;;;;26.90;66.80;;;;;;5065101;28;43856;-83
2023/08/29 01:57:54;;;;;;;;;;;26.70;66.70;;;;;;5066497;28;42959;-83
2023/08/29 02:00:20;;;;;;;;;;;27.00;66.60;;;;;;5066371;28;43292;-81
2023/08/29 02:02:46;;;;;;;;;;;26.90;66.30;;;;;;5066387;28;42778;-79
2023/08/29 02:05:11;;;;;;;;;;;26.70;65.70;;;;;;5066146;28;43770;-80
2023/08/29 02:07:37;;;;;;;;;;;26.70;65.10;;;;;;5066133;28;42871;-82
2023/08/29 02:10:02;;;;;;;;;;;26.80;65.10;;;;;;5066006;28;43443;-79
2023/08/29 02:12:28;;;;;;;;;;;26.70;64.60;;;;;;5064761;28;42965;-80
2023/08/29 02:14:54;;;;;;;;;;;26.80;65.00;;;;;;5066050;28;42933;-79
2023/08/29 02:17:19;;;;;;;;;;;26.70;65.10;;;;;;5066094;28;42818;-79
2023/08/29 02:19:45;;;;;;;;;;;26.70;64.70;;;;;;5064788;28;43704;-78
2023/08/29 02:22:11;;;;;;;;;;;26.80;64.90;;;;;;5066756;28;42892;-79
2023/08/29 02:24:37;;;;;;;;;;;26.80;64.00;;;;;;5066037;28;43013;-79
2023/08/29 02:27:04;;;;;;;;;;;26.80;64.10;;;;;;5066360;28;42926;-82
2023/08/29 02:29:29;;;;;;;;;;;26.70;63.80;;;;;;5065563;28;43657;-82
2023/08/29 02:31:55;;;;;;;;;;;26.70;64.20;;;;;;5063493;28;42989;-80
2023/08/29 02:34:20;;;;;;;;;;;27.40;64.60;;;;;;5065490;28;43715;-81
2023/08/29 02:36:46;;;;;;;;;;;26.90;64.60;;;;;;5065681;28;43048;-80
2023/08/29 02:39:11;;;;;;;;;;;26.90;65.10;;;;;;5065897;28;42863;-79
2023/08/29 02:41:37;;;;;;;;;;;26.70;64.30;;;;;;5066092;28;43074;-82
2023/08/29 02:44:03;;;;;;;;;;;27.00;64.50;;;;;;5065712;28;43534;-79
2023/08/29 02:46:28;;;;;;;;;;;26.70;63.80;;;;;;5066008;28;43283;-79
2023/08/29 02:48:54;;;;;;;;;;;26.70;63.70;;;;;;5065640;28;42834;-80
2023/08/29 02:51:19;;;;;;;;;;;26.70;63.10;;;;;;5065028;28;42906;-79
2023/08/29 02:53:45;;;;;;;;;;;26.70;62.50;;;;;;5064396;28;42857;-83
2023/08/29 02:56:10;;;;;;;;;;;26.60;62.10;;;;;;5065425;28;42885;-81
2023/08/29 02:58:36;;;;;;;;;;;26.70;61.60;;;;;;5065426;28;43649;-82
2023/08/29 03:01:03;;;;;;;;;;;26.60;62.10;;;;;;5065493;28;43082;-81
2023/08/29 03:03:29;;;;;;;;;;;26.40;61.90;;;;;;5065186;28;42930;-80
2023/08/29 03:05:58;;;;;;;;;;;26.70;62.40;;;;;;5065261;28;43115;-79
2023/08/29 03:08:23;;;;;;;;;;;26.70;60.60;;;;;;5065058;28;43086;-81
2023/08/29 03:10:49;;;;;;;;;;;26.70;63.30;;;;;;5065399;28;42917;-79
2023/08/29 03:13:15;;;;;;;;;;;26.70;63.70;;;;;;5065195;28;43543;-79
2023/08/29 03:15:40;;;;;;;;;;;26.80;64.50;;;;;;5065550;28;42929;-79
2023/08/29 03:18:06;;;;;;;;;;;26.70;64.10;;;;;;5065478;28;42916;-83
2023/08/29 03:20:32;;;;;;;;;;;26.70;63.80;;;;;;5065554;28;42991;-82
2023/08/29 03:22:58;;;;;;;;;;;26.80;64.60;;;;;;5064908;28;43696;-79
2023/08/29 03:25:23;;;;;;;;;;;26.70;64.30;;;;;;5065045;28;42936;-83
2023/08/29 03:27:49;;;;;;;;;;;26.70;64.30;;;;;;5064593;28;43083;-80
2023/08/29 03:30:15;;;;;;;;;;;26.80;64.30;;;;;;5064620;28;42780;-82
2023/08/29 03:32:40;;;;;;;;;;;26.90;64.00;;;;;;5064856;28;42882;-80
2023/08/29 03:35:07;;;;;;;;;;;26.70;64.10;;;;;;5065324;28;42948;-79
2023/08/29 03:37:33;;;;;;;;;;;26.70;62.80;;;;;;5064980;28;43106;-80
2023/08/29 03:40:27;;;;;;;;;;;26.70;63.50;;;;;;5064901;28;43026;-81
2023/08/29 03:42:52;;;;;;;;;;;26.80;61.30;;;;;;5060429;28;43581;-80
2023/08/29 03:45:18;;;;;;;;;;;26.70;63.40;;;;;;5045927;28;43080;-83
2023/08/29 03:47:44;;;;;;;;;;;26.60;62.90;;;;;;5044863;28;42991;-83
2023/08/29 03:50:09;;;;;;;;;;;26.70;63.40;;;;;;5045064;28;42886;-79
2023/08/29 03:52:35;;;;;;;;;;;26.70;63.50;;;;;;5044993;28;42911;-81
2023/08/29 03:55:00;;;;;;;;;;;26.70;63.80;;;;;;5045039;28;42858;-82
2023/08/29 03:57:28;;;;;;;;;;;26.60;64.00;;;;;;5044692;28;43906;-83
2023/08/29 04:00:08;;;;;;;;;;;26.30;61.90;;;;;;5044763;28;42894;-79
2023/08/29 04:02:49;;;;;;;;;;;26.60;61.60;;;;;;5060932;28;42938;-80
2023/08/29 04:05:14;;;;;;;;;;;26.50;63.90;;;;;;5061834;28;43031;-83
2023/08/29 04:07:40;;;;;;;;;;;26.50;63.60;;;;;;5061503;28;43025;-79
2023/08/29 04:10:06;;;;;;;;;;;26.50;64.30;;;;;;5062308;28;43119;-82
2023/08/29 04:12:31;;;;;;;;;;;26.60;63.40;;;;;;5062115;28;43658;-79
2023/08/29 04:14:57;;;;;;;;;;;26.30;64.50;;;;;;5061977;28;42809;-79
2023/08/29 04:17:22;;;;;;;;;;;26.30;64.50;;;;;;5061763;28;42898;-79
2023/08/29 04:19:47;;;;;;;;;;;26.50;64.70;;;;;;5062661;28;42923;-82
2023/08/29 04:22:13;;;;;;;;;;;26.50;65.00;;;;;;5062182;28;43034;-79
2023/08/29 04:24:38;;;;;;;;;;;26.50;64.70;;;;;;5062212;28;43154;-82
2023/08/29 04:27:04;;;;;;;;;;;26.40;64.30;;;;;;5062217;28;42940;-79
2023/08/29 04:29:30;;;;;;;;;;;26.40;63.20;;;;;;5062316;28;42926;-82
2023/08/29 04:31:55;;;;;;;;;;;26.30;63.80;;;;;;5062908;28;42973;-82
2023/08/29 04:34:23;;;;;;;;;;;26.30;64.00;;;;;;5049103;28;42937;-80
2023/08/29 04:36:49;;;;;;;;;;;26.30;63.90;;;;;;5044217;28;42953;-80
2023/08/29 04:39:14;;;;;;;;;;;26.40;64.20;;;;;;5056128;28;42802;-87
2023/08/29 04:41:40;;;;;;;;;;;26.50;64.10;;;;;;5050085;28;42783;-79
2023/08/29 04:44:05;;;;;;;;;;;26.30;63.90;;;;;;5055090;28;42900;-80
2023/08/29 04:46:31;;;;;;;;;;;26.40;64.60;;;;;;5062612;28;42849;-87
2023/08/29 04:48:56;;;;;;;;;;;26.40;64.70;;;;;;5062764;28;43612;-89
2023/08/29 04:51:23;;;;;;;;;;;26.50;65.00;;;;;;5067181;28;43691;-86
2023/08/29 04:53:48;;;;;;;;;;;26.40;65.00;;;;;;5065731;27;43106;-92
2023/08/29 04:56:14;;;;;;;;;;;26.40;65.00;;;;;;5074251;28;43058;-93
2023/08/29 04:58:40;;;;;;;;;;;26.40;65.00;;;;;;5081321;28;43083;-92
2023/08/29 05:01:06;;;;;;;;;;;26.40;65.00;;;;;;5067455;28;42921;-79
2023/08/29 05:03:31;;;;;;;;;;;26.30;65.00;;;;;;5065786;28;43043;-93
2023/08/29 05:05:57;;;;;;;;;;;26.50;65.00;;;;;;5066891;28;42922;-87
2023/08/29 05:08:23;;;;;;;;;;;26.40;64.90;;;;;;5066118;28;43017;-81
2023/08/29 05:10:49;;;;;;;;;;;26.40;65.20;;;;;;5066369;28;42893;-79
2023/08/29 05:13:15;;;;;;;;;;;26.20;64.90;;;;;;5064493;28;42858;-90
2023/08/29 05:15:41;;;;;;;;;;;26.20;65.00;;;;;;5066693;28;43562;-89
2023/08/29 05:18:06;;;;;;;;;;;26.10;64.50;;;;;;5067730;28;42964;-81
2023/08/29 05:20:32;;;;;;;;;;;26.20;64.70;;;;;;5065136;28;43734;-87
2023/08/29 05:22:57;;;;;;;;;;;26.40;64.80;;;;;;5066216;28;43237;-78
2023/08/29 05:25:23;;;;;;;;;;;26.20;64.80;;;;;;5066363;28;42980;-78
2023/08/29 05:27:48;;;;;;;;;;;26.30;64.70;;;;;;5065472;28;42982;-79
2023/08/29 05:30:14;;;;;;;;;;;26.30;64.00;;;;;;5066284;28;42999;-79
2023/08/29 05:32:39;;;;;;;;;;;26.30;64.40;;;;;;5071774;28;43738;-82
2023/08/29 05:35:06;;;;;;;;;;;26.20;64.40;;;;;;5078331;28;42946;-82
2023/08/29 05:37:32;;;;;;;;;;;26.40;64.00;;;;;;5059989;28;43087;-95
2023/08/29 05:39:57;;;;;;;;;;;26.20;64.30;;;;;;5057657;28;43758;-89
2023/08/29 05:42:23;;;;;;;;;;;26.30;64.50;;;;;;5073913;28;42833;-85
2023/08/29 05:44:48;;;;;;;;;;;26.30;64.30;;;;;;5082014;27;42839;-95
2023/08/29 05:47:14;;;;;;;;;;;26.50;64.30;;;;;;5079769;27;42726;-96
2023/08/29 05:49:39;;;;;;;;;;;26.90;64.80;;;;;;5072459;27;43857;-94
2023/08/29 05:52:05;;;;;;;;;;;27.90;64.90;;;;;;5078606;28;42347;-93
2023/08/29 05:54:31;;;;;;;;;;;26.60;63.70;;;;;;5075215;28;42357;-96
2023/08/29 05:56:56;;;;;;;;;;;26.70;64.00;;;;;;5076312;28;42908;-81
2023/08/29 05:59:22;;;;;;;;;;;26.70;64.00;;;;;;5078558;28;43610;-88
2023/08/29 06:01:48;;;;;;;;;;;27.00;64.40;;;;;;5071017;28;42727;-93
2023/08/29 06:04:14;;;;;;;;;;;26.80;63.40;;;;;;5075926;27;44397;-96
2023/08/29 06:06:40;;;;;;;;;;;26.80;64.00;;;;;;5073177;28;43009;-90
2023/08/29 06:09:08;;;;;;;;;;;26.80;64.00;;;;;;5069428;28;42552;-96
2023/08/29 06:11:34;;;;;;;;;;;26.90;64.00;;;;;;5072145;28;42426;-96
2023/08/29 06:14:00;;;;;;;;;;;26.80;64.00;;;;;;5073118;28;43308;-94
2023/08/29 06:16:25;;;;;;;;;;;26.80;64.00;;;;;;5099959;28;42377;-96
2023/08/29 06:18:51;;;;;;;;;;;26.70;63.80;;;;;;5095232;27;43680;-82
2023/08/29 06:21:17;;;;;;;;;;;27.10;64.10;;;;;;5082336;28;42830;-82
2023/08/29 06:23:42;;;;;;;;;;;26.90;63.50;;;;;;5056177;28;44718;-94
2023/08/29 06:26:08;;;;;;;;;;;27.00;64.10;;;;;;5055703;28;42887;-92
2023/08/29 06:28:33;;;;;;;;;;;26.90;63.30;;;;;;5056040;28;44351;-81
2023/08/29 06:31:05;;;;;;;;;;;26.90;63.90;;;;;;5056271;28;42939;-82
2023/08/29 06:33:31;;;;;;;;;;;27.00;61.70;;;;;;5060026;28;42849;-90
2023/08/29 06:35:57;;;;;;;;;;;27.20;64.30;;;;;;5050476;28;42893;-84
2023/08/29 06:38:22;;;;;;;;;;;27.00;64.00;;;;;;5071777;27;42853;-87
2023/08/29 06:40:55;;;;;;;;;;;26.90;64.70;;;;;;5055685;28;42851;-85
2023/08/29 06:43:21;;;;;;;;;;;26.90;61.60;;;;;;5055228;28;43740;-87
2023/08/29 06:45:46;;;;;;;;;;;27.00;64.10;;;;;;5053590;28;43050;-85
2023/08/29 06:48:12;;;;;;;;;;;27.00;64.30;;;;;;5064132;28;42919;-83
2023/08/29 06:50:37;;;;;;;;;;;27.00;64.20;;;;;;5065302;28;43478;-89
2023/08/29 06:53:03;;;;;;;;;;;27.20;64.40;;;;;;5064825;28;43549;-81
2023/08/29 06:55:31;;;;;;;;;;;27.10;64.00;;;;;;5060186;28;42957;-79
2023/08/29 06:57:57;;;;;;;;;;;27.00;64.20;;;;;;5050353;28;43097;-86
2023/08/29 07:00:23;;;;;;;;;;;27.10;64.10;;;;;;5044410;28;43092;-82
2023/08/29 07:02:49;;;;;;;;;;;26.80;63.60;;;;;;5043915;28;43024;-81
2023/08/29 07:05:15;;;;;;;;;;;27.00;63.70;;;;;;5044489;28;42827;-82
2023/08/29 07:07:40;;;;;;;;;;;26.90;63.30;;;;;;5044224;28;43920;-81
2023/08/29 07:10:06;;;;;;;;;;;26.60;63.30;;;;;;5044850;28;42897;-88
2023/08/29 07:12:32;;;;;;;;;;;26.80;62.80;;;;;;5045127;28;43008;-87
2023/08/29 07:14:58;;;;;;;;;;;26.80;63.40;;;;;;5045245;27;42859;-80
2023/08/29 07:17:24;;;;;;;;;;;26.80;63.20;;;;;;5044164;28;43879;-89
2023/08/29 07:19:49;;;;;;;;;;;26.60;63.20;;;;;;5060501;28;43014;-80
2023/08/29 07:22:16;;;;;;;;;;;26.70;63.30;;;;;;5044487;28;43597;-88
2023/08/29 07:24:43;;;;;;;;;;;26.80;63.30;;;;;;5044808;28;42999;-80
2023/08/29 07:27:08;;;;;;;;;;;26.20;63.00;;;;;;5045015;28;42948;-83
2023/08/29 07:29:34;;;;;;;;;;;26.50;63.80;;;;;;5045202;28;42790;-90
2023/08/29 07:32:00;;;;;;;;;;;26.70;63.30;;;;;;5044775;28;43027;-81
2023/08/29 07:34:25;;;;;;;;;;;26.60;63.10;;;;;;5044826;28;42997;-81
2023/08/29 07:36:51;;;;;;;;;;;26.70;63.20;;;;;;5045165;28;42909;-85
2023/08/29 07:39:18;;;;;;;;;;;26.50;63.60;;;;;;5044157;28;42819;-81
2023/08/29 07:41:44;;;;;;;;;;;26.70;63.30;;;;;;5060287;28;42925;-88
2023/08/29 07:44:12;;;;;;;;;;;26.50;63.20;;;;;;5059804;28;42894;-80
2023/08/29 07:46:38;;;;;;;;;;;26.50;63.10;;;;;;5044492;28;43617;-91
2023/08/29 07:49:10;;;;;;;;;;;26.70;63.30;;;;;;5045111;28;42977;-90
2023/08/29 07:51:36;;;;;;;;;;;26.70;63.30;;;;;;5044957;28;43456;-81
2023/08/29 07:54:01;;;;;;;;;;;26.70;63.40;;;;;;5045357;28;43149;-85
2023/08/29 07:56:27;;;;;;;;;;;26.60;63.40;;;;;;5044176;28;42814;-81
2023/08/29 07:58:52;;;;;;;;;;;26.80;63.40;;;;;;5044932;28;43031;-81
2023/08/29 08:01:18;;;;;;;;;;;26.70;64.00;;;;;;5059859;28;43517;-80
2023/08/29 08:03:43;;;;;;;;;;;26.60;63.20;;;;;;5044148;28;43052;-88
2023/08/29 08:06:09;;;;;;;;;;;26.60;63.30;;;;;;5044155;28;42949;-80
2023/08/29 08:08:34;;;;;;;;;;;26.60;63.60;;;;;;5044749;28;42953;-83
2023/08/29 08:11:00;;;;;;;;;;;26.50;63.30;;;;;;5045226;28;43337;-91
2023/08/29 08:13:28;;;;;;;;;;;26.60;63.30;;;;;;5045407;28;42748;-87
2023/08/29 08:15:53;;;;;;;;;;;26.60;63.20;;;;;;5045005;28;42987;-92
2023/08/29 08:18:19;;;;;;;;;;;26.70;63.70;;;;;;5044539;28;42863;-89
2023/08/29 08:20:44;;;;;;;;;;;26.70;63.80;;;;;;5044028;28;42927;-88
2023/08/29 08:23:10;;;;;;;;;;;26.60;63.80;;;;;;5044742;28;42960;-80
2023/08/29 08:25:35;;;;;;;;;;;26.50;64.20;;;;;;5044308;28;42929;-80
2023/08/29 08:28:01;;;;;;;;;;;26.60;64.40;;;;;;5045612;28;43007;-89
2023/08/29 08:30:27;;;;;;;;;;;26.50;64.50;;;;;;5048003;28;42969;-80
2023/08/29 08:32:52;;;;;;;;;;;26.50;64.10;;;;;;5047904;28;43012;-80
2023/08/29 08:35:18;;;;;;;;;;;26.50;64.80;;;;;;5047795;28;42994;-80
2023/08/29 08:37:43;;;;;;;;;;;26.50;64.50;;;;;;5047622;28;42886;-84
2023/08/29 08:40:10;;;;;;;;;;;26.60;65.30;;;;;;5047698;28;43447;-88
2023/08/29 08:42:37;;;;;;;;;;;26.40;64.20;;;;;;5047762;28;42897;-80
2023/08/29 08:45:05;;;;;;;;;;;26.20;65.20;;;;;;5047736;28;43524;-82
2023/08/29 08:47:32;;;;;;;;;;;26.50;65.10;;;;;;5047381;28;42844;-88
2023/08/29 08:49:57;;;;;;;;;;;26.70;65.60;;;;;;5047107;28;43842;-80
2023/08/29 08:52:23;;;;;;;;;;;26.90;65.70;;;;;;5063176;28;42867;-80
2023/08/29 08:54:48;;;;;;;;;;;26.70;65.60;;;;;;5047569;28;42959;-80
2023/08/29 08:57:14;;;;;;;;;;;26.60;65.80;;;;;;5047874;28;42948;-89
2023/08/29 08:59:41;;;;;;;;;;;26.60;65.90;;;;;;5047596;28;42850;-80
2023/08/29 09:02:10;;;;;;;;;;;26.80;66.30;;;;;;5047643;28;42955;-89
2023/08/29 09:04:35;;;;;;;;;;;26.70;66.70;;;;;;5062586;28;44717;-80
2023/08/29 09:07:01;;;;;;;;;;;26.60;65.90;;;;;;5046892;28;42849;-80
2023/08/29 09:09:26;;;;;;;;;;;26.60;66.70;;;;;;5047397;28;43475;-80
2023/08/29 09:11:53;;;;;;;;;;;26.80;66.20;;;;;;5062940;28;43226;-80
2023/08/29 09:14:19;;;;;;;;;;;26.70;66.20;;;;;;5062103;28;45563;-80
2023/08/29 09:16:45;;;;;;;;;;;26.50;66.70;;;;;;5047146;28;42960;-80
2023/08/29 09:19:10;;;;;;;;;;;26.50;66.10;;;;;;5053924;28;42988;-79
2023/08/29 09:21:36;;;;;;;;;;;26.70;67.10;;;;;;5064065;28;43013;-79
2023/08/29 09:24:04;;;;;;;;;;;26.90;66.40;;;;;;5066659;28;43469;-78
2023/08/29 09:26:31;;;;;;;;;;;26.80;67.50;;;;;;5065649;28;42935;-79
2023/08/29 09:28:56;;;;;;;;;;;26.40;67.40;;;;;;5065673;28;43124;-80
2023/08/29 09:31:22;;;;;;;;;;;26.30;67.50;;;;;;5057371;28;42965;-83
2023/08/29 09:33:48;;;;;;;;;;;26.20;67.10;;;;;;5061590;28;43693;-80
2023/08/29 09:36:13;;;;;;;;;;;26.20;67.30;;;;;;5066535;28;42869;-79
2023/08/29 09:38:40;;;;;;;;;;;26.10;67.30;;;;;;5064898;28;43760;-87
2023/08/29 09:41:11;;;;;;;;;;;26.00;68.10;;;;;;5055782;28;42879;-88
2023/08/29 09:43:44;;;;;;;;;;;25.80;67.50;;;;;;5064861;28;45164;-80
2023/08/29 09:46:10;;;;;;;;;;;26.00;68.00;;;;;;5064337;28;44140;-79
2023/08/29 09:48:36;;;;;;;;;;;25.80;67.60;;;;;;5066230;28;43634;-81
2023/08/29 09:51:01;;;;;;;;;;;25.60;68.20;;;;;;5066173;28;42994;-79
2023/08/29 09:53:28;;;;;;;;;;;25.80;67.50;;;;;;5065559;28;42957;-80
2023/08/29 09:56:08;;;;;;;;;;;25.70;67.50;;;;;;5065758;28;42894;-80
2023/08/29 09:58:34;;;;;;;;;;;25.60;66.00;;;;;;5064369;28;44446;-80
2023/08/29 10:01:00;;;;;;;;;;;25.90;67.80;;;;;;5064600;28;43054;-89
2023/08/29 10:03:26;;;;;;;;;;;25.70;67.70;;;;;;5065134;28;42923;-79
2023/08/29 10:05:55;;;;;;;;;;;25.80;67.40;;;;;;5066127;28;42991;-89
2023/08/29 10:08:25;;;;;;;;;;;26.00;65.20;;;;;;5065858;28;43921;-84
2023/08/29 10:18:02;;;;;;;;;;;25.70;66.70;;;;;;5036047;28;43403;-92
2023/08/29 10:21:01;;;;;;;;;;;25.70;64.40;;;;;;5020817;28;44466;-90
2023/08/29 10:30:02;;;;;;;;;;;25.70;64.40;;;;;;5042262;28;43048;-91
2023/08/29 10:32:58;;;;;;;;;;;;;;;;;;;;;
2023/08/29 10:36:03;;;;;;;;;;;;;;;;;;;;;
2023/08/29 10:38:53;;;;;;;;;;;25.70;67.10;;;;;;5024549;28;72250;-91
2023/08/29 10:41:49;;;;;;;;;;;25.80;65.00;;;;;;5022552;28;43068;-91
2023/08/29 10:44:40;;;;;;;;;;;25.80;65.30;;;;;;5022365;28;44549;-91
2023/08/29 10:50:23;;;;;;;;;;;25.80;67.30;;;;;;5370582;22;43767;-91
2023/08/29 11:02:49;;;;;;;;;;;25.70;65.20;;;;;;5121462;22;43371;-92
2023/08/29 11:05:47;;;;;;;;;;;25.80;65.00;;;;;;5039875;28;42902;-94
2023/08/29 11:14:13;;;;;;;;;;;25.90;64.50;;;;;;5051503;28;42929;-91
2023/08/29 11:17:10;;;;;;;;;;;25.60;64.10;;;;;;5036653;28;42899;-94
2023/08/29 11:23:29;;;;;;;;;;;25.60;63.80;;;;;;4989480;28;43129;-91
2023/08/29 11:26:11;;;;;;;;;;;25.60;63.90;;;;;;4923423;28;45319;-92
2023/08/29 11:29:01;;;;;;;;;;;25.80;64.30;;;;;;4896963;29;43209;-92
2023/08/29 11:32:29;;;;;;;;;;;26.00;64.40;;;;;;4907466;28;44157;-91
2023/08/29 11:34:46;;;;;;;;;;;26.00;66.80;;;;;;4921265;28;43221;-90
2023/08/29 11:37:30;;;;;;;;;;;25.80;66.90;;;;;;4924035;28;43721;-92
2023/08/29 11:40:09;;;;;;;;;;;25.90;66.70;;;;;;4923969;28;43019;-90
2023/08/29 11:42:37;;;;;;;;;;;25.80;64.10;;;;;;4923335;28;44226;-92
2023/08/29 11:45:09;;;;;;;;;;;25.80;66.40;;;;;;4923530;28;43007;-91
2023/08/29 11:47:38;;;;;;;;;;;25.90;64.20;;;;;;4924135;28;45385;-92
2023/08/29 11:50:17;;;;;;;;;;;;;;;;;;;;;
2023/08/29 11:52:45;;;;;;;;;;;25.80;64.40;;;;;;4921554;28;71662;-91
2023/08/29 11:55:17;;;;;;;;;;;25.80;64.40;;;;;;4996239;28;43065;-92
2023/08/29 11:57:52;;;;;;;;;;;25.90;64.30;;;;;;5022322;28;45308;-91
2023/08/29 12:00:27;;;;;;;;;;;25.90;64.30;;;;;;5019568;28;43031;-91
2023/08/29 12:03:01;;;;;;;;;;;25.90;66.90;;;;;;5004166;28;45348;-91
2023/08/29 12:05:29;;;;;;;;;;;26.00;67.50;;;;;;5008893;28;43121;-93
2023/08/29 12:07:55;;;;;;;;;;;25.80;67.70;;;;;;5009352;28;45078;-93
2023/08/29 12:10:26;;;;;;;;;;;26.00;67.90;;;;;;5015753;28;43109;-90
2023/08/29 12:13:02;;;;;;;;;;;;;;;;;;;;;
2023/08/29 12:15:36;;;;;;;;;;;25.90;68.20;;;;;;5027679;28;70293;-92
2023/08/29 12:18:09;;;;;;;;;;;26.00;66.40;;;;;;5028076;28;44485;-92
2023/08/29 12:20:55;;;;;;;;;;;25.90;68.10;;;;;;5028993;28;43026;-91
2023/08/29 12:23:30;;;;;;;;;;;25.90;67.90;;;;;;5027596;28;45380;-91
2023/08/29 12:26:07;;;;;;;;;;;26.10;65.10;;;;;;5028803;28;42934;-91
2023/08/29 12:28:37;;;;;;;;;;;26.00;66.30;;;;;;5027470;28;43138;-91
2023/08/29 12:31:07;;;;;;;;;;;25.90;65.70;;;;;;5029101;28;43054;-91
2023/08/29 12:33:38;;;;;;;;;;;25.80;63.90;;;;;;5028081;28;44754;-91
2023/08/29 12:36:04;;;;;;;;;;;25.90;64.40;;;;;;5030626;28;42815;-93
2023/08/29 12:38:36;;;;;;;;;;;25.90;67.00;;;;;;5028628;28;44966;-94
2023/08/29 12:41:21;;;;;;;;;;;25.90;64.10;;;;;;5028874;28;42805;-91
2023/08/29 12:43:49;;;;;;;;;;;25.80;64.10;;;;;;5028844;28;44173;-94
2023/08/29 12:46:34;;;;;;;;;;;25.80;64.20;;;;;;5028552;28;42922;-93
2023/08/29 12:49:17;;;;;;;;;;;25.80;64.20;;;;;;5029237;28;44940;-94
2023/08/29 12:51:46;;;;;;;;;;;25.80;64.60;;;;;;5029335;28;42950;-94
2023/08/29 12:54:18;;;;;;;;;;;25.70;64.30;;;;;;5038764;28;44447;-92
2023/08/29 12:56:44;;;;;;;;;;;26.00;64.00;;;;;;5028600;28;42803;-93
2023/08/29 12:59:18;;;;;;;;;;;26.00;65.90;;;;;;5029898;28;45282;-91
2023/08/29 13:01:53;;;;;;;;;;;26.00;66.10;;;;;;5032544;28;42934;-94
2023/08/29 13:04:25;;;;;;;;;;;25.90;64.20;;;;;;5030358;28;42826;-91
2023/08/29 13:07:05;;;;;;;;;;;26.00;64.30;;;;;;5028009;28;43009;-92
2023/08/29 13:09:44;;;;;;;;;;;;;;;;;;;;;
2023/08/29 13:18:55;;;;;;;;;;;25.80;65.50;;;;;;5063551;28;43054;-91
2023/08/29 13:24:18;;;;;;;;;;;26.00;63.90;;;;;;5061090;28;43224;-91
2023/08/29 13:27:13;;;;;;;;;;;;;;;;;;;;;
2023/08/29 13:35:42;;;;;;;;;;;26.00;66.80;;;;;;4956700;28;43051;-92
2023/08/29 13:38:08;;;;;;;;;;;26.00;64.50;;;;;;4948692;28;44203;-91
2023/08/29 13:40:34;;;;;;;;;;;25.90;67.00;;;;;;4963928;28;43055;-92
2023/08/29 13:43:23;;;;;;;;;;;;;;;;;;;;;
2023/08/29 13:46:10;;;;;;;;;;;26.00;68.00;;;;;;4974066;28;68929;-91
2023/08/29 13:48:38;;;;;;;;;;;26.00;68.50;;;;;;4982699;28;43092;-90
2023/08/29 13:51:18;;;;;;;;;;;26.00;68.80;;;;;;4980515;28;43146;-91
2023/08/29 13:53:49;;;;;;;;;;;26.00;68.90;;;;;;4942455;28;44174;-91
2023/08/29 13:56:24;;;;;;;;;;;26.00;66.50;;;;;;4950568;28;43234;-91
2023/08/29 13:58:57;;;;;;;;;;;26.00;68.30;;;;;;4949188;28;43442;-91
2023/08/29 14:01:26;;;;;;;;;;;25.90;65.80;;;;;;4948449;28;43117;-91
2023/08/29 14:03:54;;;;;;;;;;;25.90;65.90;;;;;;4951363;28;45528;-91
2023/08/29 14:06:30;;;;;;;;;;;25.80;67.90;;;;;;4965336;28;43144;-90
2023/08/29 14:08:58;;;;;;;;;;;25.90;65.90;;;;;;4967677;28;45112;-91
2023/08/29 14:11:29;;;;;;;;;;;26.00;68.00;;;;;;5026960;28;42761;-91
2023/08/29 14:13:54;;;;;;;;;;;26.00;66.00;;;;;;5028352;28;44310;-92
2023/08/29 14:16:26;;;;;;;;;;;25.90;68.00;;;;;;5025298;28;42978;-92
2023/08/29 14:19:05;;;;;;;;;;;26.00;65.70;;;;;;5027409;28;45024;-90
2023/08/29 14:21:54;;;;;;;;;;;25.90;65.40;;;;;;5027495;28;42954;-90
2023/08/29 14:24:25;;;;;;;;;;;26.00;65.30;;;;;;5028618;28;45391;-91
2023/08/29 14:26:54;;;;;;;;;;;25.90;65.20;;;;;;5027958;28;42843;-90
2023/08/29 14:29:22;;;;;;;;;;;26.00;65.50;;;;;;5023361;28;45771;-92
2023/08/29 14:32:00;;;;;;;;;;;26.10;68.00;;;;;;5021215;28;43118;-91
2023/08/29 14:34:25;;;;;;;;;;;26.00;65.90;;;;;;5025867;28;45289;-91
2023/08/29 14:36:57;;;;;;;;;;;;;;;;;;5027506;28;43092;-90
2023/08/29 14:39:26;;;;;;;;;;;25.90;66.20;;;;;;5026312;28;44118;-90
2023/08/29 14:41:57;;;;;;;;;;;25.80;68.40;;;;;;5026818;28;43013;-93
2023/08/29 14:44:34;;;;;;;;;;;25.80;66.20;;;;;;5027907;28;43044;-90
2023/08/29 14:47:08;;;;;;;;;;;25.90;66.30;;;;;;5028421;28;43126;-90
2023/08/29 14:52:27;;;;;;;;;;;25.80;66.40;;;;;;5028688;28;42990;-93
2023/08/29 14:54:56;;;;;;;;;;;25.60;68.10;;;;;;5025631;28;45094;-90
2023/08/29 14:57:24;;;;;;;;;;;25.70;65.70;;;;;;5028439;28;42984;-91
2023/08/29 14:59:59;;;;;;;;;;;25.60;65.50;;;;;;5025981;28;43743;-90
2023/08/29 15:02:28;;;;;;;;;;;25.60;67.80;;;;;;5023750;28;43074;-91
2023/08/29 15:05:01;;;;;;;;;;;25.80;65.60;;;;;;5026586;28;43025;-92
2023/08/29 15:07:35;;;;;;;;;;;25.60;67.50;;;;;;5025773;28;43039;-92
2023/08/29 15:10:17;;;;;;;;;;;25.60;65.20;;;;;;5026239;28;43073;-91
2023/08/29 15:13:01;;;;;;;;;;;;;;;;;;;;;
2023/08/29 15:15:30;;;;;;;;;;;25.70;66.60;;;;;;5023931;28;71751;-90
2023/08/29 15:18:04;;;;;;;;;;;25.60;66.40;;;;;;5024911;28;42840;-90
2023/08/29 15:21:08;;;;;;;;;;;25.80;64.40;;;;;;5024261;28;42870;-93
2023/08/29 15:23:51;;;;;;;;;;;25.80;64.00;;;;;;5022650;28;43884;-90
2023/08/29 15:26:22;;;;;;;;;;;25.80;66.10;;;;;;5021333;28;43684;-91
2023/08/29 15:28:48;;;;;;;;;;;25.80;63.80;;;;;;5023641;28;43013;-89
2023/08/29 15:31:14;;;;;;;;;;;25.60;65.70;;;;;;5023551;28;44160;-90